createdAt,value
2022-08-19T00:01:31.127Z,93.70
2022-08-19T00:03:59.450Z,93.90
2022-08-19T00:06:27.607Z,94.00
2022-08-19T00:08:55.936Z,94.00
2022-08-19T00:11:25.677Z,94.00
2022-08-19T00:13:56.339Z,94.10
2022-08-19T00:16:26.771Z,94.10
2022-08-19T00:18:56.077Z,94.20
2022-08-19T00:21:24.560Z,94.20
2022-08-19T00:23:52.457Z,94.20
2022-08-19T00:26:20.642Z,94.30
2022-08-19T00:28:49.004Z,94.30
2022-08-19T00:31:18.420Z,94.40
2022-08-19T00:33:46.302Z,94.40
2022-08-19T00:36:14.524Z,94.40
2022-08-19T00:38:43.725Z,94.50
2022-08-19T00:41:12.494Z,94.40
2022-08-19T00:43:41.397Z,94.50
2022-08-19T00:46:09.818Z,94.60
2022-08-19T00:48:39.091Z,94.60
2022-08-19T00:51:08.068Z,94.60
2022-08-19T00:53:35.990Z,94.60
2022-08-19T00:56:07.125Z,94.70
2022-08-19T00:58:37.054Z,94.60
2022-08-19T01:01:06.017Z,94.60
2022-08-19T01:03:58.068Z,94.60
2022-08-19T01:06:23.327Z,94.60
2022-08-19T01:08:51.209Z,94.70
2022-08-19T01:11:19.492Z,94.70
2022-08-19T01:13:50.084Z,94.70
2022-08-19T01:16:19.764Z,94.70
2022-08-19T01:18:47.724Z,94.80
2022-08-19T01:21:23.398Z,94.80
2022-08-19T01:23:52.690Z,94.80
2022-08-19T01:26:24.033Z,94.90
2022-08-19T01:28:59.609Z,95.00
2022-08-19T01:31:32.501Z,95.00
2022-08-19T01:34:02.144Z,95.10
2022-08-19T01:36:32.197Z,95.10
2022-08-19T01:39:02.006Z,95.10
2022-08-19T01:41:30.083Z,95.10
2022-08-19T01:44:09.938Z,95.10
2022-08-19T01:46:48.042Z,95.20
2022-08-19T01:49:16.081Z,95.30
2022-08-19T01:51:43.898Z,95.40
2022-08-19T01:54:23.027Z,95.40
2022-08-19T01:56:58.994Z,95.50
2022-08-19T01:59:27.012Z,95.50
2022-08-19T02:01:54.886Z,95.60
2022-08-19T02:04:24.256Z,95.60
2022-08-19T02:06:52.178Z,95.50
2022-08-19T02:09:21.438Z,95.50
2022-08-19T02:11:49.330Z,95.40
2022-08-19T02:14:17.248Z,95.40
2022-08-19T02:16:45.246Z,95.40
2022-08-19T02:19:13.177Z,95.40
2022-08-19T02:21:41.247Z,95.30
2022-08-19T02:24:09.387Z,95.40
2022-08-19T02:26:38.718Z,95.50
2022-08-19T02:29:07.759Z,95.50
2022-08-19T02:31:35.619Z,95.60
2022-08-19T02:34:03.579Z,95.60
2022-08-19T02:36:32.041Z,95.60
2022-08-19T02:38:59.046Z,95.60
2022-08-19T02:41:31.781Z,95.60
2022-08-19T02:44:30.162Z,95.60
2022-08-19T02:46:51.832Z,95.70
2022-08-19T02:49:21.400Z,95.80
2022-08-19T02:51:49.490Z,95.80
2022-08-19T02:54:17.702Z,95.80
2022-08-19T02:56:46.538Z,95.90
2022-08-19T02:59:15.779Z,96.00
2022-08-19T03:01:44.134Z,96.10
2022-08-19T03:04:14.279Z,96.10
2022-08-19T03:06:43.563Z,96.10
2022-08-19T03:09:12.507Z,96.20
2022-08-19T03:11:41.082Z,96.40
2022-08-19T03:14:10.879Z,96.20
2022-08-19T03:16:46.065Z,96.20
2022-08-19T03:19:14.827Z,96.20
2022-08-19T03:21:45.458Z,96.20
2022-08-19T03:24:13.979Z,96.20
2022-08-19T03:26:43.765Z,96.20
2022-08-19T03:29:13.266Z,96.20
2022-08-19T03:31:52.857Z,96.20
2022-08-19T03:34:23.249Z,96.20
2022-08-19T03:36:51.071Z,96.20
2022-08-19T03:39:19.706Z,96.20
2022-08-19T03:41:50.853Z,96.30
2022-08-19T03:44:39.463Z,96.40
2022-08-19T03:47:09.059Z,96.40
2022-08-19T03:49:37.516Z,96.50
2022-08-19T03:52:08.266Z,96.50
2022-08-19T03:54:36.755Z,96.50
2022-08-19T03:57:05.217Z,96.50
2022-08-19T03:59:36.265Z,96.50
2022-08-19T04:02:09.840Z,96.50
2022-08-19T04:04:39.525Z,96.60
2022-08-19T04:07:07.788Z,96.60
2022-08-19T04:09:37.471Z,96.70
2022-08-19T04:12:07.565Z,96.70
2022-08-19T04:14:36.565Z,96.70
2022-08-19T04:17:06.644Z,96.70
2022-08-19T04:19:35.790Z,96.70
2022-08-19T04:22:05.901Z,96.80
2022-08-19T04:24:34.465Z,97.00
2022-08-19T04:27:03.512Z,97.10
2022-08-19T04:29:31.860Z,97.20
2022-08-19T04:32:08.974Z,97.20
2022-08-19T04:35:02.098Z,97.30
2022-08-19T04:37:35.399Z,97.30
2022-08-19T04:40:23.467Z,97.30
2022-08-19T04:42:51.429Z,97.30
2022-08-19T04:45:19.385Z,97.30
2022-08-19T04:47:58.919Z,97.40
2022-08-19T04:50:43.231Z,97.50
2022-08-19T04:53:12.830Z,97.60
2022-08-19T04:55:43.055Z,97.60
2022-08-19T04:58:11.244Z,97.60
2022-08-19T05:00:41.327Z,97.70
2022-08-19T05:03:09.445Z,97.60
2022-08-19T05:05:45.162Z,97.70
2022-08-19T05:08:19.385Z,97.70
2022-08-19T05:10:59.287Z,97.70
2022-08-19T05:13:27.601Z,97.80
2022-08-19T05:15:57.164Z,97.80
2022-08-19T05:18:43.136Z,97.90
2022-08-19T05:21:29.947Z,97.90
2022-08-19T05:23:59.533Z,98.00
2022-08-19T05:26:28.107Z,98.10
2022-08-19T05:28:56.935Z,98.10
2022-08-19T05:31:24.894Z,98.10
2022-08-19T05:33:52.775Z,98.30
2022-08-19T05:36:21.002Z,98.20
2022-08-19T05:38:50.910Z,98.20
2022-08-19T05:41:20.290Z,98.30
2022-08-19T05:43:48.242Z,98.30
2022-08-19T05:46:20.018Z,98.30
2022-08-19T05:48:57.464Z,98.30
2022-08-19T05:51:28.958Z,98.30
2022-08-19T05:53:57.482Z,98.30
2022-08-19T05:56:26.971Z,98.30
2022-08-19T05:58:55.108Z,98.30
2022-08-19T06:01:23.252Z,98.30
2022-08-19T06:03:51.123Z,98.30
2022-08-19T06:06:19.579Z,98.30
2022-08-19T06:08:50.960Z,98.30
2022-08-19T06:11:22.015Z,98.30
2022-08-19T06:13:53.536Z,98.20
2022-08-19T06:16:27.836Z,98.30
2022-08-19T06:18:57.817Z,98.20
2022-08-19T06:21:28.075Z,98.20
2022-08-19T06:23:56.929Z,98.30
2022-08-19T06:26:25.502Z,98.30
2022-08-19T06:28:54.747Z,98.20
2022-08-19T06:31:25.181Z,98.20
2022-08-19T06:33:53.286Z,98.30
2022-08-19T06:36:25.272Z,98.30
2022-08-19T06:38:54.062Z,98.30
2022-08-19T06:41:22.398Z,98.30
2022-08-19T06:43:50.954Z,98.30
2022-08-19T06:46:24.120Z,98.30
2022-08-19T06:48:54.241Z,98.30
2022-08-19T06:51:24.766Z,98.30
2022-08-19T06:53:54.505Z,98.30
2022-08-19T06:56:31.845Z,98.20
2022-08-19T06:59:00.187Z,98.30
2022-08-19T07:01:29.474Z,98.20
2022-08-19T07:03:57.488Z,98.30
2022-08-19T07:06:43.515Z,98.20
2022-08-19T07:09:18.438Z,98.20
2022-08-19T07:11:47.770Z,98.20
2022-08-19T07:14:19.111Z,98.20
2022-08-19T07:16:51.140Z,98.20
2022-08-19T07:19:20.281Z,98.20
2022-08-19T07:21:48.765Z,98.20
2022-08-19T07:24:17.381Z,98.20
2022-08-19T07:26:46.250Z,98.10
2022-08-19T07:29:14.554Z,98.10
2022-08-19T07:31:43.589Z,98.00
2022-08-19T07:34:15.911Z,98.00
2022-08-19T07:36:45.388Z,97.90
2022-08-19T07:39:17.442Z,97.90
2022-08-19T07:41:45.919Z,97.90
2022-08-19T07:44:14.812Z,97.90
2022-08-19T07:46:48.263Z,97.90
2022-08-19T07:49:20.267Z,97.80
2022-08-19T07:51:50.235Z,97.90
2022-08-19T07:54:18.637Z,97.90
2022-08-19T07:56:46.543Z,97.80
2022-08-19T07:59:14.639Z,97.80
2022-08-19T08:01:42.689Z,97.70
2022-08-19T08:04:27.922Z,97.80
2022-08-19T08:07:14.771Z,97.70
2022-08-19T08:09:49.525Z,97.70
2022-08-19T08:12:33.623Z,97.70
2022-08-19T08:15:08.154Z,97.60
2022-08-19T08:17:51.420Z,97.60
2022-08-19T08:20:20.636Z,97.60
2022-08-19T08:23:07.838Z,97.50
2022-08-19T08:25:37.327Z,97.50
2022-08-19T08:28:06.029Z,97.60
2022-08-19T08:30:36.696Z,97.30
2022-08-19T08:33:05.298Z,97.20
2022-08-19T08:35:34.403Z,97.20
2022-08-19T08:38:05.189Z,97.00
2022-08-19T08:40:41.494Z,96.90
2022-08-19T08:43:15.887Z,96.70
2022-08-19T08:45:53.554Z,96.60
2022-08-19T08:48:29.102Z,96.40
2022-08-19T08:50:58.394Z,96.30
2022-08-19T08:53:31.091Z,96.10
2022-08-19T08:56:04.594Z,96.10
2022-08-19T08:58:42.880Z,96.00
2022-08-19T09:01:12.241Z,95.70
2022-08-19T09:03:42.874Z,95.60
2022-08-19T09:06:17.416Z,95.60
2022-08-19T09:08:56.976Z,95.20
2022-08-19T09:11:42.168Z,94.80
2022-08-19T09:14:47.352Z,94.60
2022-08-19T09:17:08.923Z,94.50
2022-08-19T09:19:38.116Z,94.20
2022-08-19T09:22:08.674Z,94.10
2022-08-19T09:24:40.717Z,93.90
2022-08-19T09:27:18.782Z,93.90
2022-08-19T09:29:49.882Z,93.90
2022-08-19T09:32:26.910Z,93.60
2022-08-19T09:34:55.565Z,93.20
2022-08-19T09:37:23.819Z,92.90
2022-08-19T09:39:54.584Z,92.60
2022-08-19T09:42:30.259Z,92.40
2022-08-19T09:45:05.249Z,92.30
2022-08-19T09:47:38.930Z,92.20
2022-08-19T09:50:11.689Z,92.10
2022-08-19T09:52:55.746Z,91.80
2022-08-19T09:55:31.076Z,91.60
2022-08-19T09:58:01.601Z,91.30
2022-08-19T10:00:29.889Z,91.30
2022-08-19T10:02:57.798Z,91.20
2022-08-19T10:05:42.966Z,91.20
2022-08-19T10:08:13.512Z,91.00
2022-08-19T10:10:46.636Z,90.90
2022-08-19T10:13:16.011Z,90.80
2022-08-19T10:15:47.415Z,90.40
2022-08-19T10:18:16.620Z,90.10
2022-08-19T10:20:46.644Z,90.20
2022-08-19T10:23:20.028Z,90.10
2022-08-19T10:25:49.731Z,89.70
2022-08-19T10:28:19.437Z,89.20
2022-08-19T10:30:48.453Z,90.00
2022-08-19T10:33:36.501Z,89.90
2022-08-19T10:36:06.397Z,88.20
2022-08-19T10:38:34.797Z,87.10
2022-08-19T10:41:11.129Z,86.60
2022-08-19T10:43:40.795Z,86.60
2022-08-19T10:46:14.017Z,85.90
2022-08-19T10:48:45.441Z,86.00
2022-08-19T10:51:31.939Z,87.10
2022-08-19T10:54:01.084Z,87.20
2022-08-19T10:56:48.592Z,87.40
2022-08-19T10:59:17.412Z,87.30
2022-08-19T11:01:47.080Z,87.70
2022-08-19T11:04:18.253Z,87.60
2022-08-19T11:06:48.334Z,86.80
2022-08-19T11:09:17.779Z,85.80
2022-08-19T11:11:48.402Z,85.40
2022-08-19T11:14:19.132Z,84.90
2022-08-19T11:16:47.305Z,84.50
2022-08-19T11:19:18.031Z,84.50
2022-08-19T11:21:47.728Z,84.70
2022-08-19T11:24:20.631Z,84.50
2022-08-19T11:26:52.338Z,83.50
2022-08-19T11:29:26.674Z,82.60
2022-08-19T11:31:55.753Z,81.90
2022-08-19T11:34:27.997Z,83.00
2022-08-19T11:36:59.901Z,83.80
2022-08-19T11:39:30.091Z,84.40
2022-08-19T11:42:00.345Z,84.60
2022-08-19T11:44:31.187Z,84.30
2022-08-19T11:47:08.962Z,84.00
2022-08-19T11:49:37.290Z,84.20
2022-08-19T11:52:05.549Z,83.40
2022-08-19T11:54:33.664Z,83.70
2022-08-19T11:57:04.765Z,83.60
2022-08-19T11:59:32.849Z,83.60
2022-08-19T12:02:00.754Z,82.30
2022-08-19T12:04:28.640Z,81.80
2022-08-19T12:06:56.581Z,80.60
2022-08-19T12:09:24.443Z,80.70
2022-08-19T12:11:52.833Z,80.70
2022-08-19T12:14:22.073Z,80.90
2022-08-19T12:16:52.198Z,79.40
2022-08-19T12:19:22.251Z,78.80
2022-08-19T12:21:51.603Z,77.80
2022-08-19T12:24:23.812Z,77.80
2022-08-19T12:26:53.499Z,78.20
2022-08-19T12:29:29.487Z,77.80
2022-08-19T12:32:01.460Z,77.80
2022-08-19T12:34:31.699Z,77.80
2022-08-19T12:37:00.401Z,76.40
2022-08-19T12:39:28.383Z,75.30
2022-08-19T12:41:56.475Z,75.60
2022-08-19T12:44:31.928Z,74.30
2022-08-19T12:47:01.257Z,72.60
2022-08-19T12:49:54.253Z,72.40
2022-08-19T12:52:23.319Z,72.20
2022-08-19T12:54:53.894Z,70.70
2022-08-19T12:57:24.470Z,70.60
2022-08-19T13:00:07.449Z,70.80
2022-08-19T13:02:39.029Z,70.60
2022-08-19T13:05:09.604Z,70.80
2022-08-19T13:07:38.163Z,71.10
2022-08-19T13:10:07.300Z,71.00
2022-08-19T13:12:35.290Z,70.20
2022-08-19T13:15:10.883Z,69.30
2022-08-19T13:17:40.763Z,68.10
2022-08-19T13:20:10.775Z,68.10
2022-08-19T13:22:38.939Z,67.00
2022-08-19T13:25:08.146Z,66.50
2022-08-19T13:27:36.390Z,66.60
2022-08-19T13:30:32.815Z,66.90
2022-08-19T13:33:15.184Z,66.60
2022-08-19T13:35:47.203Z,65.70
2022-08-19T13:38:17.322Z,65.60
2022-08-19T13:40:45.767Z,65.20
2022-08-19T13:43:22.851Z,64.00
2022-08-19T13:45:54.698Z,64.40
2022-08-19T13:48:22.829Z,64.80
2022-08-19T13:50:50.708Z,64.70
2022-08-19T13:53:19.938Z,64.80
2022-08-19T13:55:48.098Z,64.60
2022-08-19T13:58:16.206Z,64.10
2022-08-19T14:00:46.617Z,63.90
2022-08-19T14:03:16.133Z,63.50
2022-08-19T14:05:44.125Z,63.70
2022-08-19T14:08:13.158Z,63.60
2022-08-19T14:10:43.639Z,63.50
2022-08-19T14:13:11.816Z,63.20
2022-08-19T14:15:39.996Z,63.00
2022-08-19T14:18:07.918Z,63.40
2022-08-19T14:20:37.866Z,63.30
2022-08-19T14:23:07.070Z,63.70
2022-08-19T14:25:35.877Z,63.20
2022-08-19T14:28:04.153Z,62.90
2022-08-19T14:30:34.598Z,62.60
2022-08-19T14:33:04.009Z,62.30
2022-08-19T14:35:35.484Z,62.00
2022-08-19T14:38:05.753Z,61.70
2022-08-19T14:40:35.744Z,62.20
2022-08-19T14:43:06.087Z,61.80
2022-08-19T14:45:36.696Z,61.80
2022-08-19T14:48:05.678Z,61.60
2022-08-19T14:50:34.156Z,62.00
2022-08-19T14:53:12.558Z,61.90
2022-08-19T14:55:44.098Z,61.60
2022-08-19T14:58:29.282Z,61.50
2022-08-19T15:01:00.385Z,61.30
2022-08-19T15:03:28.802Z,61.20
2022-08-19T15:05:58.286Z,62.10
2022-08-19T15:08:28.823Z,62.50
2022-08-19T15:10:57.872Z,62.70
2022-08-19T15:13:27.057Z,62.50
2022-08-19T15:15:55.587Z,62.10
2022-08-19T15:18:23.617Z,62.10
2022-08-19T15:20:51.850Z,62.20
2022-08-19T15:23:20.766Z,62.00
2022-08-19T15:25:55.813Z,61.50
2022-08-19T15:28:24.770Z,61.80
2022-08-19T15:30:53.225Z,62.30
2022-08-19T15:33:21.663Z,62.20
2022-08-19T15:35:51.573Z,62.00
2022-08-19T15:38:22.262Z,61.70
2022-08-19T15:40:51.610Z,61.50
2022-08-19T15:43:22.133Z,61.50
2022-08-19T15:45:50.347Z,61.90
2022-08-19T15:48:18.248Z,61.80
2022-08-19T15:50:46.176Z,61.70
2022-08-19T15:53:14.061Z,61.40
2022-08-19T15:55:48.416Z,61.70
2022-08-19T15:58:35.232Z,61.80
2022-08-19T16:01:23.763Z,61.50
2022-08-19T16:04:13.989Z,61.60
2022-08-19T16:06:45.943Z,61.90
2022-08-19T16:09:14.025Z,61.70
2022-08-19T16:11:45.852Z,61.60
2022-08-19T16:14:16.105Z,61.70
2022-08-19T16:16:46.958Z,61.40
2022-08-19T16:19:16.512Z,61.30
2022-08-19T16:21:46.530Z,61.50
2022-08-19T16:24:16.620Z,61.90
2022-08-19T16:26:45.415Z,61.70
2022-08-19T16:29:34.022Z,61.80
2022-08-19T16:32:03.599Z,61.70
2022-08-19T16:34:32.463Z,61.80
2022-08-19T16:37:01.673Z,62.10
2022-08-19T16:39:29.735Z,62.10
2022-08-19T16:41:57.605Z,62.60
2022-08-19T16:44:29.655Z,62.40
2022-08-19T16:46:59.509Z,62.10
2022-08-19T16:49:55.280Z,61.70
2022-08-19T16:52:16.458Z,61.80
2022-08-19T16:54:44.951Z,61.90
2022-08-19T16:57:13.415Z,61.40
2022-08-19T16:59:48.748Z,61.30
2022-08-19T17:02:17.984Z,61.30
2022-08-19T17:04:57.123Z,61.80
2022-08-19T17:07:26.926Z,62.10
2022-08-19T17:09:54.956Z,62.20
2022-08-19T17:12:23.271Z,61.90
2022-08-19T17:15:00.689Z,61.80
2022-08-19T17:17:29.560Z,61.70
2022-08-19T17:19:57.711Z,61.80
2022-08-19T17:22:25.708Z,61.90
2022-08-19T17:24:54.074Z,61.80
2022-08-19T17:27:24.661Z,62.00
2022-08-19T17:29:52.850Z,62.00
2022-08-19T17:32:24.954Z,62.00
2022-08-19T17:34:54.005Z,62.70
2022-08-19T17:37:22.022Z,62.20
2022-08-19T17:39:50.086Z,61.80
2022-08-19T17:42:18.268Z,61.80
2022-08-19T17:44:50.363Z,61.90
2022-08-19T17:47:19.252Z,61.80
2022-08-19T17:49:48.525Z,61.90
2022-08-19T17:52:16.419Z,62.00
2022-08-19T17:54:44.289Z,62.40
2022-08-19T17:57:13.986Z,62.30
2022-08-19T17:59:42.044Z,62.30
2022-08-19T18:02:11.286Z,62.40
2022-08-19T18:04:40.346Z,62.80
2022-08-19T18:07:10.067Z,62.90
2022-08-19T18:09:42.446Z,62.70
2022-08-19T18:12:12.284Z,62.70
2022-08-19T18:14:41.266Z,63.40
2022-08-19T18:17:11.138Z,63.40
2022-08-19T18:19:41.066Z,63.50
2022-08-19T18:22:13.024Z,63.80
2022-08-19T18:24:42.007Z,64.00
2022-08-19T18:27:10.234Z,63.50
2022-08-19T18:29:40.090Z,63.70
2022-08-19T18:32:12.482Z,63.60
2022-08-19T18:34:40.856Z,63.90
2022-08-19T18:37:08.867Z,64.20
2022-08-19T18:39:56.241Z,64.90
2022-08-19T18:42:50.701Z,64.40
2022-08-19T18:45:36.254Z,63.90
2022-08-19T18:48:27.240Z,64.20
2022-08-19T18:50:57.960Z,64.10
2022-08-19T18:53:26.184Z,64.20
2022-08-19T18:55:55.890Z,64.40
2022-08-19T18:58:26.454Z,64.40
2022-08-19T19:00:56.738Z,64.70
2022-08-19T19:03:25.338Z,65.00
2022-08-19T19:05:53.270Z,64.80
2022-08-19T19:08:26.900Z,65.20
2022-08-19T19:10:56.980Z,65.20
2022-08-19T19:13:24.900Z,65.60
2022-08-19T19:15:54.342Z,65.60
2022-08-19T19:18:22.244Z,65.50
2022-08-19T19:20:50.158Z,65.30
2022-08-19T19:23:18.054Z,65.60
2022-08-19T19:25:50.263Z,65.80
2022-08-19T19:28:25.570Z,65.70
2022-08-19T19:30:54.353Z,65.90
2022-08-19T19:33:22.378Z,66.00
2022-08-19T19:35:50.284Z,66.20
2022-08-19T19:38:18.208Z,66.40
2022-08-19T19:40:46.465Z,66.70
2022-08-19T19:43:17.089Z,66.60
2022-08-19T19:45:48.277Z,66.80
2022-08-19T19:48:16.508Z,66.80
2022-08-19T19:50:45.626Z,67.20
2022-08-19T19:53:15.018Z,66.90
2022-08-19T19:55:43.554Z,67.10
2022-08-19T19:58:11.709Z,67.40
2022-08-19T20:00:39.711Z,67.30
2022-08-19T20:03:09.370Z,67.70
2022-08-19T20:05:37.247Z,67.70
2022-08-19T20:08:23.496Z,67.80
2022-08-19T20:10:51.403Z,68.10
2022-08-19T20:13:19.364Z,68.40
2022-08-19T20:15:47.342Z,68.50
2022-08-19T20:18:16.627Z,68.90
2022-08-19T20:20:46.234Z,69.00
2022-08-19T20:23:14.351Z,69.00
2022-08-19T20:25:42.274Z,68.60
2022-08-19T20:28:12.298Z,68.50
2022-08-19T20:30:42.671Z,68.10
2022-08-19T20:33:15.986Z,67.60
2022-08-19T20:35:45.401Z,67.10
2022-08-19T20:38:13.838Z,66.90
2022-08-19T20:40:42.046Z,66.80
2022-08-19T20:43:11.196Z,66.90
2022-08-19T20:45:39.687Z,66.80
2022-08-19T20:48:10.539Z,66.70
2022-08-19T20:50:40.323Z,66.70
2022-08-19T20:53:13.361Z,66.60
2022-08-19T20:55:44.259Z,66.60
2022-08-19T20:58:13.511Z,66.60
2022-08-19T21:00:43.753Z,66.50
2022-08-19T21:03:11.969Z,66.60
2022-08-19T21:05:41.525Z,66.50
2022-08-19T21:08:09.418Z,66.60
2022-08-19T21:10:40.541Z,66.60
2022-08-19T21:13:10.198Z,66.70
2022-08-19T21:15:40.587Z,66.70
2022-08-19T21:18:08.834Z,66.70
2022-08-19T21:20:36.979Z,67.00
2022-08-19T21:23:07.336Z,67.20
2022-08-19T21:25:35.382Z,67.30
2022-08-19T21:28:04.366Z,67.50
2022-08-19T21:30:32.359Z,67.40
2022-08-19T21:33:01.830Z,67.40
2022-08-19T21:35:30.041Z,68.10
2022-08-19T21:37:58.478Z,67.70
2022-08-19T21:40:28.000Z,67.80
2022-08-19T21:42:56.297Z,67.80
2022-08-19T21:45:24.525Z,67.90
2022-08-19T21:47:52.451Z,68.00
2022-08-19T21:50:20.751Z,68.00
2022-08-19T21:52:48.723Z,68.20
2022-08-19T21:55:17.144Z,68.30
2022-08-19T21:57:46.988Z,68.30
2022-08-19T22:00:17.828Z,68.50
2022-08-19T22:02:47.229Z,68.50
2022-08-19T22:05:15.560Z,68.70
2022-08-19T22:07:43.781Z,68.70
2022-08-19T22:10:12.131Z,68.70
2022-08-19T22:12:51.505Z,68.80
2022-08-19T22:15:22.851Z,69.10
2022-08-19T22:17:51.585Z,69.20
2022-08-19T22:20:23.253Z,69.30
2022-08-19T22:22:53.485Z,69.40
2022-08-19T22:25:29.985Z,69.60
2022-08-19T22:28:01.726Z,69.60
2022-08-19T22:30:34.048Z,70.00
2022-08-19T22:33:04.544Z,70.00
2022-08-19T22:35:37.713Z,70.10
2022-08-19T22:38:07.357Z,70.50
2022-08-19T22:40:39.441Z,70.50
2022-08-19T22:43:09.319Z,70.60
2022-08-19T22:45:38.661Z,70.80
2022-08-19T22:48:08.558Z,70.70
2022-08-19T22:50:36.991Z,70.90
2022-08-19T22:53:07.203Z,70.80
2022-08-19T22:55:36.925Z,71.00
2022-08-19T22:58:05.440Z,71.00
2022-08-19T23:00:33.827Z,71.50
2022-08-19T23:03:03.242Z,71.50
2022-08-19T23:05:31.371Z,71.70
2022-08-19T23:07:59.387Z,71.90
2022-08-19T23:10:28.857Z,72.10
2022-08-19T23:12:58.033Z,72.20
2022-08-19T23:15:28.590Z,72.60
2022-08-19T23:18:00.096Z,72.60
2022-08-19T23:20:32.473Z,73.00
2022-08-19T23:23:02.214Z,73.20
2022-08-19T23:25:32.212Z,73.40
2022-08-19T23:28:18.093Z,73.70
2022-08-19T23:30:47.889Z,73.90
2022-08-19T23:33:21.423Z,74.60
2022-08-19T23:35:51.120Z,74.70
2022-08-19T23:38:20.979Z,75.00
2022-08-19T23:40:48.926Z,75.50
2022-08-19T23:43:24.310Z,75.80
2022-08-19T23:45:53.731Z,76.40
2022-08-19T23:48:25.977Z,76.40
2022-08-19T23:50:58.255Z,76.70
2022-08-19T23:53:26.611Z,77.00
2022-08-19T23:55:54.995Z,77.20
2022-08-19T23:58:23.706Z,77.50
